createdAt,value
2023-04-01T00:06:00.757Z,8.120401337792643
2023-04-01T00:13:53.410Z,8.799331103678929
2023-04-01T00:20:12.159Z,8.799331103678929
2023-04-01T00:26:31.228Z,9.354515050167224
2023-04-01T00:32:50.390Z,9.133779264214047
2023-04-01T00:39:09.623Z,8.809364548494983
2023-04-01T00:45:29.399Z,8.762541806020067
2023-04-01T00:51:48.006Z,8.839464882943144
2023-04-01T00:58:07.531Z,8.478260869565217
2023-04-01T01:05:48.904Z,7.759197324414716
2023-04-01T01:12:09.297Z,9.31772575250836
2023-04-01T01:18:28.341Z,9.240802675585284
2023-04-01T01:24:47.479Z,9.37123745819398
2023-04-01T01:44:24.884Z,8.494983277591974
2023-04-01T01:50:43.922Z,8.351170568561873
2023-04-01T01:57:04.013Z,8.518394648829432
2023-04-01T02:03:23.947Z,7.745819397993311
2023-04-01T02:09:43.273Z,8.749163879598662
2023-04-01T02:18:52.151Z,9.207357859531772
2023-04-01T02:31:00.776Z,9.785953177257525
2023-04-01T02:37:19.805Z,9.451505016722408
2023-04-01T02:48:45.255Z,9.97324414715719
2023-04-01T02:55:03.991Z,10.528428093645484
2023-04-01T03:01:22.861Z,8.642140468227424
2023-04-01T03:07:42.485Z,7.879598662207358
2023-04-01T03:16:46.471Z,8.02675585284281
2023-04-01T03:23:06.382Z,7.474916387959866
2023-04-01T03:29:25.695Z,6.9397993311036785
2023-04-01T03:47:09.637Z,6.1438127090301
2023-04-01T03:53:28.459Z,5.6521739130434785
2023-04-01T03:59:47.745Z,4.989966555183947
2023-04-01T04:06:06.984Z,4.963210702341137
2023-04-01T04:12:26.314Z,4.926421404682274
2023-04-01T04:18:46.231Z,5.010033444816053
2023-04-01T04:25:07.717Z,5.234113712374582
2023-04-01T04:31:26.797Z,4.9397993311036785
2023-04-01T04:37:46.072Z,4.34113712374582
2023-04-01T04:48:28.707Z,4.1003344481605355
2023-04-01T04:54:48.388Z,4.411371237458194
2023-04-01T05:01:08.067Z,4.434782608695652
2023-04-01T05:16:47.039Z,3.7759197324414715
2023-04-01T05:23:06.105Z,3.9665551839464883
2023-04-01T05:33:21.366Z,3.9163879598662206
2023-04-01T05:39:43.415Z,2.839464882943144
2023-04-01T05:46:05.373Z,2.869565217391304
2023-04-01T05:52:26.518Z,2.9565217391304346
2023-04-01T05:58:47.955Z,2.648829431438127
2023-04-01T06:12:15.017Z,3.4648829431438126
2023-04-01T06:18:37.430Z,3.4247491638795986
2023-04-01T06:25:51.858Z,3.2675585284280935
2023-04-01T06:32:13.520Z,3.1839464882943145
2023-04-01T06:40:59.172Z,1.9230769230769231
2023-04-01T06:47:20.757Z,2.2274247491638794
2023-04-01T06:53:42.099Z,2.234113712374582
2023-04-01T07:00:04.216Z,1.6120401337792643
2023-04-01T07:06:26.245Z,1.6923076923076923
2023-04-01T07:12:47.986Z,1.214046822742475
2023-04-01T07:23:03.942Z,1.4782608695652173
2023-04-01T07:29:25.947Z,1.3043478260869565
2023-04-01T07:35:47.590Z,1.214046822742475
2023-04-01T07:42:09.528Z,1.1538461538461537
2023-04-01T07:48:53.131Z,1.5250836120401339
2023-04-01T07:55:15.246Z,0.8795986622073578
2023-04-01T08:01:36.541Z,0.7357859531772575
2023-04-01T08:10:05.387Z,1.137123745819398
2023-04-01T08:29:16.912Z,0.8294314381270903
2023-04-01T08:40:46.900Z,0.7926421404682275
2023-04-01T08:47:08.499Z,1.471571906354515
2023-04-01T08:53:33.519Z,1.6020066889632107
2023-04-01T08:59:54.930Z,1.3076923076923077
2023-04-01T09:10:10.332Z,0.782608695652174
2023-04-01T09:16:32.046Z,1.62876254180602
2023-04-01T09:22:53.052Z,0.8963210702341137
2023-04-01T09:30:39.959Z,0.903010033444816
2023-04-01T09:37:01.489Z,0.9364548494983278
2023-04-01T09:43:23.517Z,1.060200668896321
2023-04-01T09:49:45.655Z,0.8695652173913043
2023-04-01T09:56:07.630Z,0.5752508361204013
2023-04-01T10:02:29.882Z,0.5150501672240803
2023-04-01T10:12:33.098Z,0.5986622073578596
2023-04-01T10:18:56.027Z,1.0668896321070234
2023-04-01T10:25:19.017Z,0.2709030100334448
2023-04-01T10:31:41.197Z,0.06688963210702341
2023-04-01T10:38:03.278Z,0.010033444816053512
2023-04-01T10:47:43.917Z,0.0
2023-04-01T10:54:06.883Z,0.5484949832775919
2023-04-01T11:00:29.281Z,0.0
2023-04-01T11:06:51.385Z,0.0
2023-04-01T11:13:13.945Z,0.0
2023-04-01T11:19:35.507Z,0.0
2023-04-01T11:25:57.832Z,0.056856187290969896
2023-04-01T11:32:19.675Z,0.451505016722408
2023-04-01T11:38:41.793Z,0.6354515050167224
2023-04-01T11:45:03.306Z,0.04013377926421405
2023-04-01T11:58:46.389Z,0.016722408026755852
2023-04-01T12:05:08.494Z,0.043478260869565216
2023-04-01T12:11:29.990Z,0.18729096989966554
2023-04-01T12:17:52.178Z,0.25752508361204013
2023-04-01T12:24:14.461Z,0.43478260869565216
2023-04-01T12:35:14.016Z,0.42474916387959866
2023-04-01T12:41:36.456Z,0.5585284280936454
2023-04-01T12:47:58.534Z,0.33444816053511706
2023-04-01T12:58:42.222Z,0.7926421404682275
2023-04-01T13:05:03.671Z,0.22408026755852842
2023-04-01T13:11:25.288Z,0.25418060200668896
2023-04-01T13:17:46.969Z,0.22742474916387959
2023-04-01T13:24:08.577Z,0.010033444816053512
2023-04-01T13:30:30.492Z,0.1505016722408027
2023-04-01T13:40:42.791Z,0.08695652173913043
2023-04-01T13:47:06.740Z,0.14046822742474915
2023-04-01T13:53:27.811Z,0.21739130434782608
2023-04-01T13:59:49.653Z,0.1705685618729097
2023-04-01T14:07:05.148Z,0.10702341137123746
2023-04-01T14:13:27.658Z,0.11036789297658862
2023-04-01T14:19:50.182Z,0.42474916387959866
2023-04-01T14:26:12.283Z,0.43812709030100333
2023-04-01T14:32:35.101Z,1.2374581939799332
2023-04-01T14:39:02.064Z,0.9130434782608695
2023-04-01T14:45:23.923Z,0.44481605351170567
2023-04-01T14:51:48.328Z,0.4916387959866221
2023-04-01T14:58:11.578Z,8.57190635451505
2023-04-01T15:04:34.627Z,12.869565217391305
2023-04-01T15:10:57.785Z,12.013377926421406
2023-04-01T15:17:20.372Z,4.2675585284280935
2023-04-01T15:23:43.792Z,7.889632107023411
2023-04-01T15:34:18.400Z,8.016722408026755
2023-04-01T15:40:40.910Z,3.511705685618729
2023-04-01T15:52:16.759Z,5.869565217391305
2023-04-01T15:58:38.270Z,2.6755852842809364
2023-04-01T16:04:59.627Z,4.578595317725752
2023-04-01T16:19:46.753Z,3.0668896321070234
2023-04-01T16:28:02.076Z,4.090301003344481
2023-04-01T16:38:27.552Z,8.25418060200669
2023-04-01T16:44:49.653Z,6.852842809364549
2023-04-01T16:51:13.984Z,5.451505016722408
2023-04-01T16:57:36.508Z,3.8127090301003346
2023-04-01T17:10:09.125Z,4.2274247491638794
2023-04-01T17:16:31.015Z,5.040133779264214
2023-04-01T17:32:03.839Z,16.444816053511705
2023-04-01T17:38:22.713Z,24.214046822742475
2023-04-01T17:44:42.462Z,22.127090301003346
2023-04-01T17:51:29.301Z,16.130434782608695
2023-04-01T17:57:48.072Z,16.48494983277592
2023-04-01T18:04:09.623Z,12.561872909698996
2023-04-01T18:10:29.292Z,17.17056856187291
2023-04-01T18:19:55.915Z,34.525083612040135
2023-04-01T18:26:15.751Z,8.57190635451505
2023-04-01T18:32:35.406Z,8.732441471571907
2023-04-01T18:50:01.937Z,10.130434782608695
2023-04-01T19:01:55.425Z,13.996655518394649
2023-04-01T19:15:06.536Z,9.010033444816054
2023-04-01T19:21:25.653Z,10.391304347826088
2023-04-01T19:27:44.430Z,10.869565217391305
2023-04-01T19:39:44.480Z,12.391304347826088
2023-04-01T19:46:03.478Z,23.976588628762542
2023-04-01T19:52:24.605Z,13.555183946488294
2023-04-01T20:00:56.266Z,33.62876254180602
2023-04-01T20:07:15.483Z,51.070234113712374
2023-04-01T20:18:35.295Z,25.297658862876254
2023-04-01T20:24:53.994Z,15.618729096989966
2023-04-01T20:31:12.462Z,15.020066889632107
2023-04-01T20:37:31.381Z,9.832775919732441
2023-04-01T20:43:50.306Z,9.782608695652174
2023-04-01T20:56:12.668Z,7.976588628762542
2023-04-01T21:02:34.005Z,7.260869565217392
2023-04-01T21:20:14.293Z,9.68561872909699
2023-04-01T21:26:35.417Z,9.501672240802675
2023-04-01T21:32:54.012Z,9.645484949832776
2023-04-01T21:39:13.057Z,7.963210702341137
2023-04-01T21:45:31.535Z,8.297658862876254
2023-04-01T21:51:51.286Z,6.508361204013378
2023-04-01T22:00:14.728Z,5.879598662207358
2023-04-01T22:06:34.547Z,7.240802675585284
2023-04-01T22:13:52.454Z,5.036789297658863
2023-04-01T22:20:35.769Z,5.8595317725752505
2023-04-01T22:26:55.334Z,4.705685618729097
2023-04-01T22:33:15.197Z,4.367892976588629
2023-04-01T22:39:34.462Z,4.65886287625418
2023-04-01T22:45:57.205Z,3.7558528428093645
2023-04-01T22:52:16.485Z,3.3277591973244145
2023-04-01T22:59:37.453Z,3.759197324414716
2023-04-01T23:05:56.392Z,3.6053511705685617
2023-04-01T23:12:14.848Z,2.8260869565217392
2023-04-01T23:18:33.856Z,2.7859531772575252
2023-04-01T23:27:53.770Z,2.7926421404682276
2023-04-01T23:34:12.481Z,3.31438127090301
2023-04-01T23:42:31.548Z,3.1872909698996654
2023-04-01T23:48:50.080Z,1.8561872909698998
2023-04-01T23:57:05.692Z,1.4481605351170568
